Time;durP1;ratioP1;P1;durP2;ratioP2;P2;SDS_P1;SDS_P2;PMS_P1;PMS_P2;Temp;Humidity;BMP_temperature;BMP_pressure;BME280_temperature;BME280_humidity;BME280_pressure;Samples;Min_cycle;Max_cycle;Signal;HPM_P1;HPM_P2
2023/01/15 00:00:18;;;;;;;7.22;5.53;;;;;;;21.46;52.85;100670.22;20949082;28;20052;-86
2023/01/15 00:10:18;;;;;;;8.93;6.20;;;;;;;21.47;52.47;100668.41;20940579;28;20407;-87
2023/01/15 00:20:19;;;;;;;7.50;5.70;;;;;;;21.42;52.69;100661.69;20955238;28;20131;-85
2023/01/15 00:30:19;;;;;;;7.45;5.53;;;;;;;21.39;53.11;100642.63;20956460;27;20048;-87
2023/01/15 00:40:22;;;;;;;7.68;5.40;;;;;;;21.36;52.75;100638.44;20961182;28;20059;-86
2023/01/15 00:50:22;;;;;;;7.17;5.47;;;;;;;21.35;53.05;100625.34;20946112;28;20130;-85
2023/01/15 01:00:23;;;;;;;6.38;5.00;;;;;;;21.32;52.78;100629.06;20952469;28;20037;-85
2023/01/15 01:10:25;;;;;;;7.05;5.57;;;;;;;21.31;53.06;100622.09;20945356;28;20076;-85
2023/01/15 01:20:25;;;;;;;7.03;5.20;;;;;;;21.29;52.81;100610.88;20958247;28;20098;-86
2023/01/15 01:30:26;;;;;;;5.93;4.63;;;;;;;21.26;52.85;100614.56;20966049;28;21072;-86
2023/01/15 01:40:26;;;;;;;6.03;4.80;;;;;;;21.25;52.64;100597.09;20960162;28;20282;-86
2023/01/15 01:50:30;;;;;;;7.85;5.32;;;;;;;21.24;52.83;100594.56;20954510;28;20139;-88
2023/01/15 02:00:32;;;;;;;6.28;4.82;;;;;;;21.23;52.83;100569.19;20953498;28;20064;-86
2023/01/15 02:10:33;;;;;;;7.10;5.30;;;;;;;21.20;52.93;100562.38;20942477;28;20442;-84
2023/01/15 02:20:55;;;;;;;5.88;4.88;;;;;;;21.17;53.03;100536.25;20951601;28;20052;-87
2023/01/15 02:31:11;;;;;;;6.07;4.70;;;;;;;21.16;52.87;100536.38;20948188;28;20041;-86
2023/01/15 02:41:16;;;;;;;7.10;5.38;;;;;;;21.12;53.14;100522.59;20939841;28;20119;-85
2023/01/15 02:51:21;;;;;;;6.13;4.72;;;;;;;21.12;53.16;100517.31;20947335;28;20063;-87
2023/01/15 03:01:30;;;;;;;6.90;4.72;;;;;;;21.10;52.95;100514.81;20938739;28;20117;-87
2023/01/15 03:11:36;;;;;;;6.63;5.18;;;;;;;21.08;52.79;100507.97;20947080;28;20095;-88
2023/01/15 03:21:50;;;;;;;7.47;5.05;;;;;;;21.05;52.98;100508.22;20942333;28;20046;-86
2023/01/15 03:31:50;;;;;;;6.57;4.78;;;;;;;21.04;53.01;100486.28;20952819;28;20056;-86
2023/01/15 03:42:12;;;;;;;6.00;4.82;;;;;;;21.02;52.78;100479.47;20947703;28;20484;-86
2023/01/15 03:52:20;;;;;;;6.53;4.93;;;;;;;21.01;52.86;100475.19;20944472;28;20675;-87
2023/01/15 04:02:22;;;;;;;5.65;4.82;;;;;;;21.00;52.73;100487.47;20930504;28;20150;-87
2023/01/15 04:12:26;;;;;;;8.23;4.70;;;;;;;20.99;53.08;100490.25;20938255;28;21402;-86
2023/01/15 04:22:27;;;;;;;5.72;4.43;;;;;;;20.97;53.31;100471.94;20942634;28;20075;-88
2023/01/15 04:32:27;;;;;;;8.57;5.10;;;;;;;20.95;52.85;100464.13;20946085;28;20032;-87
2023/01/15 04:52:47;;;;;;;5.57;4.70;;;;;;;20.91;53.18;100460.06;20935132;28;20040;-87
2023/01/15 05:02:48;;;;;;;6.85;4.88;;;;;;;20.90;53.23;100466.28;20955040;28;20972;-87
2023/01/15 05:12:48;;;;;;;5.72;4.65;;;;;;;20.91;52.70;100461.84;20963874;28;20036;-86
2023/01/15 05:22:48;;;;;;;6.72;4.88;;;;;;;20.96;52.40;100433.41;20957519;28;20044;-88
2023/01/15 05:32:50;;;;;;;5.15;4.45;;;;;;;21.01;52.37;100420.72;20956621;28;20492;-87
2023/01/15 05:42:52;;;;;;;6.05;4.85;;;;;;;21.06;52.11;100399.31;20959715;28;20056;-86
2023/01/15 05:52:53;;;;;;;5.10;4.30;;;;;;;21.13;51.58;100392.63;20961050;28;20064;-87
2023/01/15 06:02:54;;;;;;;5.93;4.68;;;;;;;21.18;51.59;100386.97;20963926;28;20041;-86
2023/01/15 06:12:54;;;;;;;12.55;7.78;;;;;;;21.22;51.96;100373.47;20936576;28;20094;-87
2023/01/15 06:22:55;;;;;;;12.43;9.77;;;;;;;21.26;52.15;100372.28;20941886;28;20045;-87
2023/01/15 06:32:55;;;;;;;10.85;8.55;;;;;;;21.33;52.07;100371.81;20940775;28;20055;-87
2023/01/15 06:53:18;;;;;;;9.17;7.07;;;;;;;21.47;52.25;100350.47;20944502;28;20060;-85
2023/01/15 07:03:19;;;;;;;10.05;7.07;;;;;;;21.52;51.99;100348.31;20941479;28;20071;-86
2023/01/15 07:13:19;;;;;;;10.88;6.13;;;;;;;21.58;52.59;100357.53;20944756;28;20076;-86
2023/01/15 07:23:21;;;;;;;8.00;6.20;;;;;;;21.61;52.26;100353.84;20969457;28;20036;-87
2023/01/15 07:33:21;;;;;;;7.63;5.85;;;;;;;21.67;52.72;100342.81;20941950;28;20036;-84
2023/01/15 07:53:41;;;;;;;7.38;5.53;;;;;;;21.75;52.79;100333.31;20928369;28;20053;-83
2023/01/15 08:03:41;;;;;;;6.78;5.25;;;;;;;21.80;52.91;100321.56;20913026;28;20063;-83
2023/01/15 08:24:02;;;;;;;9.15;6.07;;;;;;;21.30;48.34;100320.22;20923778;28;20058;-89
2023/01/15 08:34:03;;;;;;;8.13;5.97;;;;;;;21.44;49.64;100319.09;20934852;28;20047;-85
2023/01/15 08:44:04;;;;;;;12.30;5.97;;;;;;;21.52;50.34;100313.22;20936953;28;20079;-84
2023/01/15 08:54:04;;;;;;;8.15;5.35;;;;;;;21.57;50.95;100311.09;20954211;28;20478;-84
2023/01/15 09:04:05;;;;;;;7.80;5.93;;;;;;;21.59;51.24;100302.09;20945142;28;20127;-83
2023/01/15 09:14:07;;;;;;;8.60;6.20;;;;;;;21.62;51.45;100297.53;20940012;28;20380;-84
2023/01/15 09:24:08;;;;;;;7.63;5.53;;;;;;;21.65;51.34;100277.03;20926378;28;20048;-84
2023/01/15 09:34:09;;;;;;;8.48;6.03;;;;;;;21.65;51.56;100261.22;20935228;27;20155;-84
2023/01/15 09:44:22;;;;;;;7.43;5.70;;;;;;;21.66;51.41;100239.19;20942021;28;20551;-83
2023/01/15 09:54:52;;;;;;;9.30;6.30;;;;;;;21.68;51.50;100221.47;20911873;28;20044;-83
2023/01/15 10:05:29;;;;;;;9.65;6.65;;;;;;;21.69;51.88;100198.56;20924219;28;20044;-87
2023/01/15 10:15:40;;;;;;;10.48;6.55;;;;;;;21.72;51.44;100161.44;20903621;28;20052;-83
2023/01/15 10:25:49;;;;;;;11.13;6.47;;;;;;;21.74;51.82;100162.16;20917794;28;20467;-87
2023/01/15 10:36:05;;;;;;;8.07;6.15;;;;;;;21.81;52.16;100126.38;20926631;28;20082;-86
2023/01/15 10:46:16;;;;;;;8.73;5.88;;;;;;;21.62;46.54;100113.94;20911428;28;20101;-87
2023/01/15 10:56:21;;;;;;;22.85;5.57;;;;;;;21.79;49.25;100098.50;20926498;28;20055;-87
2023/01/15 11:06:25;;;;;;;9.27;5.22;;;;;;;21.84;50.53;100067.34;20936465;28;20044;-88
2023/01/15 11:26:36;;;;;;;8.75;5.43;;;;;;;21.98;51.74;100032.69;20947328;28;20037;-91
2023/01/15 11:36:37;;;;;;;9.20;6.37;;;;;;;22.09;53.12;100018.59;20928585;28;20056;-85
2023/01/15 11:57:05;;;;;;;16.45;8.15;;;;;;;22.33;57.63;99962.84;20908575;28;20500;-86
2023/01/15 12:07:12;;;;;;;15.15;8.15;;;;;;;22.35;56.60;99934.53;20908006;28;20048;-87
2023/01/15 12:17:24;;;;;;;9.70;6.72;;;;;;;22.34;55.29;99932.03;20943306;28;20044;-87
2023/01/15 12:27:58;;;;;;;10.27;6.97;;;;;;;22.35;54.81;99942.44;20937455;28;20036;-86
2023/01/15 12:38:01;;;;;;;16.35;8.55;;;;;;;22.41;55.56;99929.69;20891576;28;20538;-85
2023/01/15 12:48:39;;;;;;;11.60;8.25;;;;;;;22.37;55.10;99926.47;20934509;28;20087;-86
2023/01/15 12:59:06;;;;;;;13.45;7.38;;;;;;;22.36;54.38;99923.00;20924467;28;20037;-85
2023/01/15 13:09:17;;;;;;;10.20;7.18;;;;;;;22.35;54.30;99904.66;20932237;28;20109;-88
2023/01/15 13:19:29;;;;;;;12.30;6.82;;;;;;;22.31;53.27;99892.75;20938170;28;20547;-89
2023/01/15 13:29:38;;;;;;;;;;;;;;;22.30;53.64;99877.88;20950972;28;20044;-85
2023/01/15 13:39:42;;;;;;;8.93;6.03;;;;;;;22.26;53.81;99868.59;20951240;28;19935;-86
2023/01/15 13:49:58;;;;;;;8.45;6.30;;;;;;;22.21;53.85;99861.09;20960053;28;20048;-86
2023/01/15 14:00:03;;;;;;;8.57;6.43;;;;;;;22.19;53.43;99850.69;20965743;28;20044;-87
2023/01/15 14:10:29;;;;;;;8.15;6.65;;;;;;;22.16;53.76;99850.94;20942243;28;20041;-86
2023/01/15 14:20:36;;;;;;;8.88;6.50;;;;;;;22.15;53.84;99836.09;20956655;28;20041;-89
2023/01/15 14:31:05;;;;;;;10.02;6.78;;;;;;;22.08;54.34;99842.88;20955170;28;20376;-85
2023/01/15 14:41:07;;;;;;;10.60;6.95;;;;;;;22.10;53.65;99826.94;20927281;28;20045;-93
2023/01/15 14:51:13;;;;;;;11.00;7.22;;;;;;;21.99;52.87;99823.47;20921827;28;20491;-81
2023/01/15 15:01:20;;;;;;;10.70;6.85;;;;;;;22.00;53.05;99822.50;20923264;28;20134;-83
2023/01/15 15:21:47;;;;;;;11.55;6.20;;;;;;;21.94;53.28;99801.16;20912655;28;20033;-82
2023/01/15 15:31:55;;;;;;;;;;;;;;;21.91;53.43;99787.25;20910577;28;20036;-82
2023/01/15 15:52:24;;;;;;;9.70;6.57;;;;;;;21.86;53.72;99778.09;20905235;28;20044;-81
2023/01/15 16:02:33;;;;;;;9.88;6.30;;;;;;;21.81;54.12;99780.31;20895057;28;20043;-78
2023/01/15 16:12:41;;;;;;;9.43;5.97;;;;;;;21.80;53.99;99781.28;20902897;28;20053;-80
2023/01/15 16:22:50;;;;;;;9.82;7.25;;;;;;;21.80;54.31;99771.59;20892732;28;20063;-80
2023/01/15 16:32:52;;;;;;;13.45;8.00;;;;;;;21.79;54.88;99767.28;20904964;28;20037;-82
2023/01/15 16:43:13;;;;;;;16.33;8.63;;;;;;;21.78;55.72;99770.88;20921087;28;20061;-82
2023/01/15 16:53:36;;;;;;;12.23;8.30;;;;;;;21.85;56.00;99771.16;20933360;28;20051;-83
2023/01/15 17:03:40;;;;;;;27.20;17.77;;;;;;;21.87;56.63;99769.22;20962070;28;20033;-85
2023/01/15 17:13:41;;;;;;;42.35;27.38;;;;;;;21.85;56.67;99764.09;20932044;28;20125;-83
2023/01/15 17:23:42;;;;;;;39.05;26.05;;;;;;;21.84;56.47;99745.78;20933119;28;20502;-85
2023/01/15 17:33:43;;;;;;;45.38;26.85;;;;;;;21.85;56.63;99752.69;20927562;28;20044;-88
2023/01/15 17:43:44;;;;;;;41.85;27.85;;;;;;;21.87;57.04;99750.78;20949331;28;20091;-87
2023/01/15 17:53:45;;;;;;;40.20;26.40;;;;;;;21.86;57.32;99747.31;20938340;28;20155;-88
2023/01/15 18:14:09;;;;;;;40.08;23.13;;;;;;;21.88;56.96;99755.06;20930314;28;20044;-88
2023/01/15 18:24:11;;;;;;;37.80;23.38;;;;;;;21.85;57.19;99739.53;20922331;28;20560;-90
2023/01/15 18:34:13;;;;;;;;;;;;;;;21.83;56.73;99749.41;20926133;28;20094;-86
2023/01/15 18:54:40;;;;;;;34.78;21.98;;;;;;;21.79;56.24;99753.25;20922098;28;20060;-87
2023/01/15 19:04:41;;;;;;;31.97;20.40;;;;;;;21.75;56.45;99761.47;20903630;28;20045;-93
2023/01/15 19:25:02;;;;;;;30.83;19.55;;;;;;;21.78;56.08;99754.25;20909502;28;20052;-87
2023/01/15 19:35:05;;;;;;;30.13;19.80;;;;;;;21.78;56.01;99757.72;20899015;28;21029;-85
2023/01/15 19:55:28;;;;;;;30.63;19.05;;;;;;;21.71;55.50;99741.59;20918540;27;21753;-84
2023/01/15 20:05:31;;;;;;;27.58;18.77;;;;;;;21.67;54.90;99740.22;20901483;28;20036;-85
2023/01/15 20:15:32;;;;;;;26.50;16.92;;;;;;;21.65;55.24;99744.78;20911278;28;20056;-85
2023/01/15 20:25:35;;;;;;;25.95;17.38;;;;;;;21.63;55.63;99748.53;20928686;28;20495;-84
2023/01/15 20:35:36;;;;;;;24.98;16.20;;;;;;;21.62;55.43;99737.19;20940375;28;20040;-83
2023/01/15 20:45:37;;;;;;;25.42;15.98;;;;;;;21.59;55.52;99737.44;20951325;28;20040;-81
2023/01/15 20:55:40;;;;;;;24.35;15.88;;;;;;;21.58;55.55;99746.31;20937005;28;20547;-82
2023/01/15 21:05:41;;;;;;;22.40;15.48;;;;;;;21.53;55.86;99751.97;20936634;28;20029;-83
2023/01/15 21:15:42;;;;;;;21.95;14.98;;;;;;;21.53;55.48;99733.53;20938434;28;20044;-83
2023/01/15 21:25:42;;;;;;;22.38;14.27;;;;;;;21.50;55.67;99744.34;20942501;28;20846;-82
2023/01/15 21:35:43;;;;;;;20.58;14.57;;;;;;;21.49;55.65;99734.75;20938051;28;20046;-83
2023/01/15 21:45:44;;;;;;;20.42;13.88;;;;;;;21.49;55.87;99731.31;20927218;28;20078;-83
2023/01/15 21:55:51;;;;;;;19.30;13.88;;;;;;;21.47;56.08;99715.66;20931863;28;20044;-83
2023/01/15 22:05:51;;;;;;;20.08;13.18;;;;;;;21.46;56.14;99697.31;20935010;28;20132;-82
2023/01/15 22:15:53;;;;;;;17.98;12.90;;;;;;;21.46;55.91;99705.22;20927818;28;20697;-82
2023/01/15 22:25:54;;;;;;;17.27;11.90;;;;;;;21.44;55.98;99700.94;20926955;28;20399;-83
2023/01/15 22:35:59;;;;;;;16.35;11.23;;;;;;;21.42;56.20;99681.81;20922101;28;20049;-82
2023/01/15 22:46:13;;;;;;;17.30;11.80;;;;;;;21.41;55.95;99698.59;20933029;28;20059;-82
2023/01/15 22:56:13;;;;;;;15.15;11.63;;;;;;;21.39;56.16;99703.16;20937479;28;20037;-82
2023/01/15 23:06:17;;;;;;;14.60;10.68;;;;;;;21.38;56.03;99714.63;20922795;28;20045;-82
2023/01/15 23:16:18;;;;;;;15.35;10.68;;;;;;;21.37;56.21;99712.16;20914288;28;20040;-82
2023/01/15 23:26:21;;;;;;;14.48;10.25;;;;;;;21.38;56.19;99692.75;20913426;28;20033;-82
2023/01/15 23:36:22;;;;;;;12.27;9.10;;;;;;;21.36;56.23;99663.09;20927916;28;20048;-83
2023/01/15 23:46:34;;;;;;;13.93;9.68;;;;;;;21.35;55.91;99648.25;20920217;28;20437;-82
2023/01/15 23:56:34;;;;;;;12.95;9.63;;;;;;;21.35;56.08;99661.41;20917422;28;20071;-82
